sensor_id;sensor_type;location;lat;lon;timestamp;pressure;altitude;pressure_sealevel;temperature;humidity
16030;BME280;34770;49.272;11.070;2023-01-16T00:01:21;96679.78;;;0.38;100.00
16030;BME280;34770;49.272;11.070;2023-01-16T00:03:47;96682.81;;;0.36;100.00
16030;BME280;34770;49.272;11.070;2023-01-16T00:06:14;96681.00;;;0.31;100.00
16030;BME280;34770;49.272;11.070;2023-01-16T00:08:41;96671.03;;;0.27;100.00
16030;BME280;34770;49.272;11.070;2023-01-16T00:11:07;96660.38;;;0.25;100.00
16030;BME280;34770;49.272;11.070;2023-01-16T00:13:32;96664.22;;;0.15;100.00
16030;BME280;34770;49.272;11.070;2023-01-16T00:15:58;96636.13;;;0.01;100.00
16030;BME280;34770;49.272;11.070;2023-01-16T00:18:23;96660.13;;;0.04;100.00
16030;BME280;34770;49.272;11.070;2023-01-16T00:20:49;96649.81;;;0.01;100.00
16030;BME280;34770;49.272;11.070;2023-01-16T00:23:15;96635.75;;;-0.15;100.00
16030;BME280;34770;49.272;11.070;2023-01-16T00:25:42;96635.41;;;-0.13;100.00
16030;BME280;34770;49.272;11.070;2023-01-16T00:28:12;96647.03;;;-0.08;100.00
16030;BME280;34770;49.272;11.070;2023-01-16T00:30:38;96638.16;;;-0.13;100.00
16030;BME280;34770;49.272;11.070;2023-01-16T00:33:04;96639.41;;;-0.20;100.00
16030;BME280;34770;49.272;11.070;2023-01-16T00:35:31;96636.63;;;-0.28;100.00
16030;BME280;34770;49.272;11.070;2023-01-16T00:37:57;96624.25;;;-0.26;100.00
16030;BME280;34770;49.272;11.070;2023-01-16T00:40:29;96620.88;;;-0.31;100.00
16030;BME280;34770;49.272;11.070;2023-01-16T00:42:54;96583.72;;;-0.55;100.00
16030;BME280;34770;49.272;11.070;2023-01-16T00:45:20;96599.34;;;-0.56;100.00
16030;BME280;34770;49.272;11.070;2023-01-16T00:47:48;96605.78;;;-0.52;100.00
16030;BME280;34770;49.272;11.070;2023-01-16T00:50:14;96600.75;;;-0.58;100.00
16030;BME280;34770;49.272;11.070;2023-01-16T00:52:39;96589.94;;;-0.63;100.00
16030;BME280;34770;49.272;11.070;2023-01-16T00:55:05;96592.50;;;-0.67;100.00
16030;BME280;34770;49.272;11.070;2023-01-16T00:57:31;96595.88;;;-0.70;100.00
16030;BME280;34770;49.272;11.070;2023-01-16T00:59:56;96591.47;;;-0.80;100.00
16030;BME280;34770;49.272;11.070;2023-01-16T01:02:21;96589.13;;;-0.87;100.00
16030;BME280;34770;49.272;11.070;2023-01-16T01:04:47;96588.53;;;-0.84;100.00
16030;BME280;34770;49.272;11.070;2023-01-16T01:07:12;96584.78;;;-0.88;100.00
16030;BME280;34770;49.272;11.070;2023-01-16T01:09:38;96596.84;;;-0.89;100.00
16030;BME280;34770;49.272;11.070;2023-01-16T01:12:03;96583.81;;;-0.92;100.00
16030;BME280;34770;49.272;11.070;2023-01-16T01:14:29;96594.09;;;-0.89;100.00
16030;BME280;34770;49.272;11.070;2023-01-16T01:16:54;96574.13;;;-0.98;100.00
16030;BME280;34770;49.272;11.070;2023-01-16T01:19:19;96580.88;;;-0.95;100.00
16030;BME280;34770;49.272;11.070;2023-01-16T01:21:45;96587.16;;;-0.95;100.00
16030;BME280;34770;49.272;11.070;2023-01-16T01:24:11;96574.19;;;-0.89;100.00
16030;BME280;34770;49.272;11.070;2023-01-16T01:26:36;96564.97;;;-0.93;100.00
16030;BME280;34770;49.272;11.070;2023-01-16T01:29:02;96561.25;;;-0.98;100.00
16030;BME280;34770;49.272;11.070;2023-01-16T01:31:27;96546.25;;;-1.09;100.00
16030;BME280;34770;49.272;11.070;2023-01-16T01:33:53;96571.41;;;-0.98;100.00
16030;BME280;34770;49.272;11.070;2023-01-16T01:36:18;96564.50;;;-0.95;100.00
16030;BME280;34770;49.272;11.070;2023-01-16T01:38:44;96558.22;;;-0.96;100.00
16030;BME280;34770;49.272;11.070;2023-01-16T01:41:14;96557.09;;;-0.95;100.00
16030;BME280;34770;49.272;11.070;2023-01-16T01:46:20;96529.41;;;-1.02;100.00
16030;BME280;34770;49.272;11.070;2023-01-16T01:48:47;96549.66;;;-1.03;100.00
16030;BME280;34770;49.272;11.070;2023-01-16T01:51:28;96519.22;;;-1.10;100.00
16030;BME280;34770;49.272;11.070;2023-01-16T01:54:01;96505.09;;;-1.13;100.00
16030;BME280;34770;49.272;11.070;2023-01-16T01:56:38;96525.25;;;-1.00;100.00
16030;BME280;34770;49.272;11.070;2023-01-16T01:59:08;96518.34;;;-0.97;100.00
16030;BME280;34770;49.272;11.070;2023-01-16T02:01:36;96511.41;;;-1.03;100.00
16030;BME280;34770;49.272;11.070;2023-01-16T02:04:09;96510.81;;;-1.00;100.00
16030;BME280;34770;49.272;11.070;2023-01-16T02:06:44;96504.66;;;-1.06;100.00
16030;BME280;34770;49.272;11.070;2023-01-16T02:09:12;96487.72;;;-1.17;100.00
16030;BME280;34770;49.272;11.070;2023-01-16T02:12:02;96471.47;;;-1.22;100.00
16030;BME280;34770;49.272;11.070;2023-01-16T02:14:33;96488.06;;;-1.09;100.00
16030;BME280;34770;49.272;11.070;2023-01-16T02:17:14;96488.41;;;-1.11;100.00
16030;BME280;34770;49.272;11.070;2023-01-16T02:20:19;96469.59;;;-1.35;100.00
16030;BME280;34770;49.272;11.070;2023-01-16T02:22:51;96469.97;;;-1.28;100.00
16030;BME280;34770;49.272;11.070;2023-01-16T02:29:09;96452.63;;;-1.32;100.00
16030;BME280;34770;49.272;11.070;2023-01-16T02:34:44;96446.53;;;-1.29;100.00
16030;BME280;34770;49.272;11.070;2023-01-16T02:42:30;96422.19;;;-1.17;100.00
16030;BME280;34770;49.272;11.070;2023-01-16T02:48:03;96405.91;;;-0.99;100.00
16030;BME280;34770;49.272;11.070;2023-01-16T02:50:48;96415.47;;;-0.79;100.00
16030;BME280;34770;49.272;11.070;2023-01-16T02:53:25;96398.44;;;-0.76;100.00
16030;BME280;34770;49.272;11.070;2023-01-16T02:55:59;96372.25;;;-0.68;100.00
16030;BME280;34770;49.272;11.070;2023-01-16T02:58:33;96381.16;;;-0.45;100.00
16030;BME280;34770;49.272;11.070;2023-01-16T03:01:00;96368.66;;;-0.37;100.00
16030;BME280;34770;49.272;11.070;2023-01-16T03:03:34;96376.38;;;-0.30;100.00
16030;BME280;34770;49.272;11.070;2023-01-16T03:11:37;96357.09;;;-0.08;100.00
16030;BME280;34770;49.272;11.070;2023-01-16T03:14:15;96355.03;;;-0.02;100.00
16030;BME280;34770;49.272;11.070;2023-01-16T03:16:48;96347.44;;;0.04;100.00
16030;BME280;34770;49.272;11.070;2023-01-16T03:21:58;96333.91;;;0.07;100.00
16030;BME280;34770;49.272;11.070;2023-01-16T03:27:30;96315.44;;;0.04;100.00
16030;BME280;34770;49.272;11.070;2023-01-16T03:30:05;96321.53;;;0.01;100.00
16030;BME280;34770;49.272;11.070;2023-01-16T03:32:43;96313.34;;;-0.17;100.00
16030;BME280;34770;49.272;11.070;2023-01-16T03:35:19;96273.28;;;-0.47;100.00
16030;BME280;34770;49.272;11.070;2023-01-16T03:37:52;96303.53;;;-0.26;100.00
16030;BME280;34770;49.272;11.070;2023-01-16T03:40:29;96296.59;;;-0.41;100.00
16030;BME280;34770;49.272;11.070;2023-01-16T03:43:01;96262.84;;;-0.45;100.00
16030;BME280;34770;49.272;11.070;2023-01-16T03:48:08;96263.28;;;-0.52;100.00
16030;BME280;34770;49.272;11.070;2023-01-16T03:50:36;96258.00;;;-0.49;100.00
16030;BME280;34770;49.272;11.070;2023-01-16T03:53:07;96233.25;;;-0.70;100.00
16030;BME280;34770;49.272;11.070;2023-01-16T03:55:41;96247.88;;;-0.57;100.00
16030;BME280;34770;49.272;11.070;2023-01-16T03:58:13;96247.72;;;-0.60;100.00
16030;BME280;34770;49.272;11.070;2023-01-16T04:01:10;96261.34;;;-0.69;100.00
16030;BME280;34770;49.272;11.070;2023-01-16T04:03:51;96236.91;;;-0.92;100.00
16030;BME280;34770;49.272;11.070;2023-01-16T04:06:24;96244.94;;;-0.95;100.00
16030;BME280;34770;49.272;11.070;2023-01-16T04:08:54;96239.91;;;-1.11;100.00
16030;BME280;34770;49.272;11.070;2023-01-16T04:11:23;96219.78;;;-1.24;100.00
16030;BME280;34770;49.272;11.070;2023-01-16T04:13:52;96222.56;;;-1.15;100.00
16030;BME280;34770;49.272;11.070;2023-01-16T04:16:20;96201.50;;;-1.32;100.00
16030;BME280;34770;49.272;11.070;2023-01-16T04:18:48;96198.88;;;-1.37;100.00
16030;BME280;34770;49.272;11.070;2023-01-16T04:21:14;96217.22;;;-1.29;100.00
16030;BME280;34770;49.272;11.070;2023-01-16T04:23:40;96210.13;;;-1.30;100.00
16030;BME280;34770;49.272;11.070;2023-01-16T04:26:07;96173.97;;;-1.53;100.00
16030;BME280;34770;49.272;11.070;2023-01-16T04:28:32;96185.06;;;-1.41;100.00
16030;BME280;34770;49.272;11.070;2023-01-16T04:30:58;96155.16;;;-1.64;100.00
16030;BME280;34770;49.272;11.070;2023-01-16T04:33:23;96163.34;;;-1.64;100.00
16030;BME280;34770;49.272;11.070;2023-01-16T04:35:49;96172.25;;;-1.40;100.00
16030;BME280;34770;49.272;11.070;2023-01-16T04:38:14;96164.69;;;-1.35;100.00
16030;BME280;34770;49.272;11.070;2023-01-16T04:40:40;96142.34;;;-1.46;100.00
16030;BME280;34770;49.272;11.070;2023-01-16T04:43:08;96139.31;;;-1.44;100.00
16030;BME280;34770;49.272;11.070;2023-01-16T04:45:34;96153.31;;;-1.28;100.00
16030;BME280;34770;49.272;11.070;2023-01-16T04:47:59;96128.25;;;-1.30;100.00
16030;BME280;34770;49.272;11.070;2023-01-16T04:50:25;96120.34;;;-1.49;100.00
16030;BME280;34770;49.272;11.070;2023-01-16T04:52:50;96117.16;;;-1.42;100.00
16030;BME280;34770;49.272;11.070;2023-01-16T04:55:18;96121.50;;;-1.24;100.00
16030;BME280;34770;49.272;11.070;2023-01-16T04:57:45;96118.94;;;-1.29;100.00
16030;BME280;34770;49.272;11.070;2023-01-16T05:00:12;96092.09;;;-1.45;100.00
16030;BME280;34770;49.272;11.070;2023-01-16T05:02:37;96100.78;;;-1.25;100.00
16030;BME280;34770;49.272;11.070;2023-01-16T05:05:03;96089.41;;;-1.27;100.00
16030;BME280;34770;49.272;11.070;2023-01-16T05:07:29;96090.03;;;-1.30;100.00
16030;BME280;34770;49.272;11.070;2023-01-16T05:09:54;96090.03;;;-1.48;100.00
16030;BME280;34770;49.272;11.070;2023-01-16T05:12:20;96069.66;;;-1.50;100.00
16030;BME280;34770;49.272;11.070;2023-01-16T05:14:45;96089.38;;;-1.45;100.00
16030;BME280;34770;49.272;11.070;2023-01-16T05:17:11;96059.19;;;-1.57;100.00
16030;BME280;34770;49.272;11.070;2023-01-16T05:19:37;96074.94;;;-1.45;100.00
16030;BME280;34770;49.272;11.070;2023-01-16T05:22:02;96074.63;;;-1.43;100.00
16030;BME280;34770;49.272;11.070;2023-01-16T05:24:27;96052.94;;;-1.49;100.00
16030;BME280;34770;49.272;11.070;2023-01-16T05:26:53;96053.88;;;-1.62;100.00
16030;BME280;34770;49.272;11.070;2023-01-16T05:29:18;96027.38;;;-1.79;100.00
16030;BME280;34770;49.272;11.070;2023-01-16T05:31:44;96046.97;;;-1.68;100.00
16030;BME280;34770;49.272;11.070;2023-01-16T05:34:09;96047.16;;;-1.65;100.00
16030;BME280;34770;49.272;11.070;2023-01-16T05:36:35;96037.34;;;-1.74;100.00
16030;BME280;34770;49.272;11.070;2023-01-16T05:39:01;96036.84;;;-1.77;100.00
16030;BME280;34770;49.272;11.070;2023-01-16T05:41:26;96015.31;;;-1.96;100.00
16030;BME280;34770;49.272;11.070;2023-01-16T05:43:52;96008.41;;;-1.93;100.00
16030;BME280;34770;49.272;11.070;2023-01-16T05:46:17;96009.69;;;-1.90;100.00
16030;BME280;34770;49.272;11.070;2023-01-16T05:48:43;95995.91;;;-1.94;100.00
16030;BME280;34770;49.272;11.070;2023-01-16T05:51:08;96001.84;;;-1.92;100.00
16030;BME280;34770;49.272;11.070;2023-01-16T05:53:34;95994.78;;;-1.93;100.00
16030;BME280;34770;49.272;11.070;2023-01-16T05:56:06;95966.84;;;-2.08;100.00
16030;BME280;34770;49.272;11.070;2023-01-16T05:58:32;95983.88;;;-2.02;100.00
16030;BME280;34770;49.272;11.070;2023-01-16T06:00:57;95954.97;;;-2.20;100.00
16030;BME280;34770;49.272;11.070;2023-01-16T06:03:23;95982.91;;;-2.06;100.00
16030;BME280;34770;49.272;11.070;2023-01-16T06:05:48;95969.13;;;-2.10;100.00
16030;BME280;34770;49.272;11.070;2023-01-16T06:08:13;95965.09;;;-2.12;100.00
16030;BME280;34770;49.272;11.070;2023-01-16T06:10:39;95964.28;;;-2.13;100.00
16030;BME280;34770;49.272;11.070;2023-01-16T06:13:04;95932.34;;;-2.38;100.00
16030;BME280;34770;49.272;11.070;2023-01-16T06:15:30;95954.94;;;-2.29;100.00
16030;BME280;34770;49.272;11.070;2023-01-16T06:17:55;95922.53;;;-2.39;100.00
16030;BME280;34770;49.272;11.070;2023-01-16T06:20:21;95944.88;;;-2.20;100.00
16030;BME280;34770;49.272;11.070;2023-01-16T06:22:47;95928.44;;;-2.55;100.00
16030;BME280;34770;49.272;11.070;2023-01-16T06:25:12;95939.84;;;-2.44;100.00
16030;BME280;34770;49.272;11.070;2023-01-16T06:27:38;95919.66;;;-2.43;100.00
16030;BME280;34770;49.272;11.070;2023-01-16T06:30:05;95920.91;;;-2.49;100.00
16030;BME280;34770;49.272;11.070;2023-01-16T06:32:30;95925.88;;;-2.43;100.00
16030;BME280;34770;49.272;11.070;2023-01-16T06:34:56;95934.22;;;-2.48;100.00
16030;BME280;34770;49.272;11.070;2023-01-16T06:37:21;95933.59;;;-2.45;100.00
16030;BME280;34770;49.272;11.070;2023-01-16T06:39:47;95910.34;;;-2.51;100.00
16030;BME280;34770;49.272;11.070;2023-01-16T06:42:12;95890.28;;;-2.64;100.00
16030;BME280;34770;49.272;11.070;2023-01-16T06:44:38;95909.19;;;-2.50;100.00
16030;BME280;34770;49.272;11.070;2023-01-16T06:47:03;95907.63;;;-2.51;100.00
16030;BME280;34770;49.272;11.070;2023-01-16T06:49:29;95899.56;;;-2.56;100.00
16030;BME280;34770;49.272;11.070;2023-01-16T06:51:54;95897.19;;;-2.58;100.00
16030;BME280;34770;49.272;11.070;2023-01-16T06:54:20;95900.69;;;-2.57;100.00
16030;BME280;34770;49.272;11.070;2023-01-16T06:56:45;95877.31;;;-2.58;100.00
16030;BME280;34770;49.272;11.070;2023-01-16T06:59:11;95874.25;;;-2.65;100.00
16030;BME280;34770;49.272;11.070;2023-01-16T07:01:36;95884.03;;;-2.64;100.00
16030;BME280;34770;49.272;11.070;2023-01-16T07:04:02;95877.78;;;-2.56;100.00
16030;BME280;34770;49.272;11.070;2023-01-16T07:06:27;95863.06;;;-2.55;100.00
16030;BME280;34770;49.272;11.070;2023-01-16T07:08:53;95865.78;;;-2.46;100.00
16030;BME280;34770;49.272;11.070;2023-01-16T07:11:19;95850.25;;;-2.54;100.00
16030;BME280;34770;49.272;11.070;2023-01-16T07:13:44;95865.00;;;-2.47;100.00
16030;BME280;34770;49.272;11.070;2023-01-16T07:16:14;95863.56;;;-2.44;100.00
16030;BME280;34770;49.272;11.070;2023-01-16T07:19:00;95842.75;;;-2.40;100.00
16030;BME280;34770;49.272;11.070;2023-01-16T07:21:46;95827.81;;;-2.43;100.00
16030;BME280;34770;49.272;11.070;2023-01-16T07:24:34;95821.25;;;-2.33;100.00
16030;BME280;34770;49.272;11.070;2023-01-16T07:27:02;95824.47;;;-2.13;100.00
16030;BME280;34770;49.272;11.070;2023-01-16T07:29:31;95817.91;;;-2.03;100.00
16030;BME280;34770;49.272;11.070;2023-01-16T07:31:59;95783.25;;;-2.12;100.00
16030;BME280;34770;49.272;11.070;2023-01-16T07:34:26;95810.00;;;-1.87;100.00
16030;BME280;34770;49.272;11.070;2023-01-16T07:36:51;95797.47;;;-1.80;100.00
16030;BME280;34770;49.272;11.070;2023-01-16T07:39:17;95795.66;;;-1.58;100.00
16030;BME280;34770;49.272;11.070;2023-01-16T07:41:42;95778.97;;;-1.48;100.00
16030;BME280;34770;49.272;11.070;2023-01-16T07:44:09;95779.84;;;-1.26;100.00
16030;BME280;34770;49.272;11.070;2023-01-16T07:46:34;95758.84;;;-1.34;100.00
16030;BME280;34770;49.272;11.070;2023-01-16T07:49:00;95751.59;;;-1.30;100.00
16030;BME280;34770;49.272;11.070;2023-01-16T07:51:25;95742.63;;;-1.31;100.00
16030;BME280;34770;49.272;11.070;2023-01-16T07:53:51;95752.16;;;-1.16;100.00
16030;BME280;34770;49.272;11.070;2023-01-16T07:56:16;95755.94;;;-0.99;100.00
16030;BME280;34770;49.272;11.070;2023-01-16T07:58:42;95742.09;;;-0.94;100.00
16030;BME280;34770;49.272;11.070;2023-01-16T08:01:09;95749.22;;;-0.81;100.00
16030;BME280;34770;49.272;11.070;2023-01-16T08:03:35;95743.72;;;-0.72;100.00
16030;BME280;34770;49.272;11.070;2023-01-16T08:06:01;95734.00;;;-0.60;100.00
16030;BME280;34770;49.272;11.070;2023-01-16T08:08:28;95730.06;;;-0.51;100.00
16030;BME280;34770;49.272;11.070;2023-01-16T08:10:58;95723.88;;;-0.39;100.00
16030;BME280;34770;49.272;11.070;2023-01-16T08:13:25;95720.84;;;-0.25;100.00
16030;BME280;34770;49.272;11.070;2023-01-16T08:15:51;95714.28;;;-0.11;100.00
16030;BME280;34770;49.272;11.070;2023-01-16T08:18:18;95701.88;;;-0.09;100.00
16030;BME280;34770;49.272;11.070;2023-01-16T08:20:44;95692.78;;;-0.01;100.00
16030;BME280;34770;49.272;11.070;2023-01-16T08:23:10;95695.47;;;0.21;100.00
16030;BME280;34770;49.272;11.070;2023-01-16T08:25:37;95686.47;;;0.32;100.00
16030;BME280;34770;49.272;11.070;2023-01-16T08:28:03;95680.56;;;0.43;100.00
16030;BME280;34770;49.272;11.070;2023-01-16T08:30:28;95673.13;;;0.56;100.00
16030;BME280;34770;49.272;11.070;2023-01-16T08:32:58;95674.28;;;0.67;100.00
16030;BME280;34770;49.272;11.070;2023-01-16T08:35:23;95654.09;;;0.72;100.00
16030;BME280;34770;49.272;11.070;2023-01-16T08:37:49;95653.84;;;0.89;100.00
16030;BME280;34770;49.272;11.070;2023-01-16T08:40:15;95625.88;;;0.84;100.00
16030;BME280;34770;49.272;11.070;2023-01-16T08:42:41;95648.78;;;1.04;99.74
16030;BME280;34770;49.272;11.070;2023-01-16T08:45:25;95639.28;;;1.14;98.18
16030;BME280;34770;49.272;11.070;2023-01-16T08:48:10;95639.72;;;1.28;95.72
16030;BME280;34770;49.272;11.070;2023-01-16T08:50:54;95635.31;;;1.39;96.09
16030;BME280;34770;49.272;11.070;2023-01-16T08:53:40;95614.97;;;1.53;95.02
16030;BME280;34770;49.272;11.070;2023-01-16T08:56:05;95612.06;;;1.62;93.93
16030;BME280;34770;49.272;11.070;2023-01-16T08:58:31;95619.53;;;1.77;92.81
16030;BME280;34770;49.272;11.070;2023-01-16T09:00:56;95621.75;;;1.87;89.40
16030;BME280;34770;49.272;11.070;2023-01-16T09:03:22;95608.41;;;2.02;90.41
16030;BME280;34770;49.272;11.070;2023-01-16T09:05:47;95597.59;;;2.25;88.91
16030;BME280;34770;49.272;11.070;2023-01-16T09:08:13;95597.22;;;2.59;85.50
16030;BME280;34770;49.272;11.070;2023-01-16T09:10:38;95599.88;;;3.26;81.56
16030;BME280;34770;49.272;11.070;2023-01-16T09:13:04;95595.69;;;4.18;78.32
16030;BME280;34770;49.272;11.070;2023-01-16T09:15:47;95575.41;;;4.80;72.10
16030;BME280;34770;49.272;11.070;2023-01-16T09:18:13;95567.53;;;5.39;68.55
16030;BME280;34770;49.272;11.070;2023-01-16T09:20:39;95560.75;;;5.67;66.25
16030;BME280;34770;49.272;11.070;2023-01-16T09:23:07;95566.03;;;5.46;66.70
16030;BME280;34770;49.272;11.070;2023-01-16T09:25:33;95554.19;;;5.45;65.77
16030;BME280;34770;49.272;11.070;2023-01-16T09:27:59;95566.31;;;5.71;64.73
16030;BME280;34770;49.272;11.070;2023-01-16T09:30:26;95564.50;;;5.86;64.34
16030;BME280;34770;49.272;11.070;2023-01-16T09:32:52;95543.97;;;5.83;64.52
16030;BME280;34770;49.272;11.070;2023-01-16T09:35:17;95565.84;;;6.44;62.83
16030;BME280;34770;49.272;11.070;2023-01-16T09:37:44;95549.91;;;6.82;60.01
16030;BME280;34770;49.272;11.070;2023-01-16T09:40:13;95546.97;;;6.05;60.64
16030;BME280;34770;49.272;11.070;2023-01-16T09:43:01;95528.34;;;6.43;59.02
16030;BME280;34770;49.272;11.070;2023-01-16T09:45:53;95522.75;;;6.36;58.47
16030;BME280;34770;49.272;11.070;2023-01-16T09:48:32;95522.41;;;6.45;59.96
16030;BME280;34770;49.272;11.070;2023-01-16T09:51:02;95519.78;;;6.63;58.66
16030;BME280;34770;49.272;11.070;2023-01-16T09:53:48;95515.19;;;6.81;58.28
16030;BME280;34770;49.272;11.070;2023-01-16T09:56:38;95505.28;;;6.21;58.29
16030;BME280;34770;49.272;11.070;2023-01-16T09:59:48;95468.94;;;6.15;58.85
16030;BME280;34770;49.272;11.070;2023-01-16T10:02:28;95482.59;;;6.49;58.31
16030;BME280;34770;49.272;11.070;2023-01-16T10:05:00;95466.56;;;6.73;57.36
16030;BME280;34770;49.272;11.070;2023-01-16T10:07:47;95474.97;;;6.98;57.24
16030;BME280;34770;49.272;11.070;2023-01-16T10:21:25;95417.59;;;9.16;50.16
16030;BME280;34770;49.272;11.070;2023-01-16T10:24:03;95406.19;;;10.15;49.79
16030;BME280;34770;49.272;11.070;2023-01-16T10:26:56;95412.19;;;8.72;50.58
16030;BME280;34770;49.272;11.070;2023-01-16T10:29:32;95411.09;;;7.94;52.07
16030;BME280;34770;49.272;11.070;2023-01-16T10:32:32;95402.44;;;7.88;52.25
16030;BME280;34770;49.272;11.070;2023-01-16T10:35:12;95400.44;;;8.03;52.79
16030;BME280;34770;49.272;11.070;2023-01-16T10:37:38;95393.66;;;7.32;53.39
16030;BME280;34770;49.272;11.070;2023-01-16T10:40:19;95382.22;;;7.73;54.57
16030;BME280;34770;49.272;11.070;2023-01-16T10:42:54;95376.69;;;7.55;53.25
16030;BME280;34770;49.272;11.070;2023-01-16T10:45:41;95371.88;;;8.28;52.36
16030;BME280;34770;49.272;11.070;2023-01-16T10:48:27;95369.59;;;7.61;53.09
16030;BME280;34770;49.272;11.070;2023-01-16T10:51:13;95373.88;;;7.08;53.22
16030;BME280;34770;49.272;11.070;2023-01-16T10:53:39;95365.41;;;6.58;54.63
16030;BME280;34770;49.272;11.070;2023-01-16T10:56:05;95353.94;;;6.55;56.43
16030;BME280;34770;49.272;11.070;2023-01-16T10:58:36;95362.41;;;6.14;56.68
16030;BME280;34770;49.272;11.070;2023-01-16T11:01:10;95349.59;;;5.91;58.03
16030;BME280;34770;49.272;11.070;2023-01-16T11:03:40;95342.97;;;5.44;58.50
16030;BME280;34770;49.272;11.070;2023-01-16T11:06:07;95351.88;;;5.26;60.88
16030;BME280;34770;49.272;11.070;2023-01-16T11:08:33;95320.13;;;5.47;62.28
16030;BME280;34770;49.272;11.070;2023-01-16T11:11:00;95317.88;;;6.27;59.63
16030;BME280;34770;49.272;11.070;2023-01-16T11:13:27;95309.78;;;6.77;58.74
16030;BME280;34770;49.272;11.070;2023-01-16T11:18:55;95271.91;;;6.85;57.70
16030;BME280;34770;49.272;11.070;2023-01-16T11:21:30;95286.16;;;7.34;56.02
16030;BME280;34770;49.272;11.070;2023-01-16T11:24:16;95290.09;;;7.08;56.73
16030;BME280;34770;49.272;11.070;2023-01-16T11:26:48;95274.28;;;7.44;55.04
16030;BME280;34770;49.272;11.070;2023-01-16T11:29:17;95276.09;;;6.28;56.15
16030;BME280;34770;49.272;11.070;2023-01-16T11:31:57;95269.09;;;5.79;58.10
16030;BME280;34770;49.272;11.070;2023-01-16T11:34:26;95227.72;;;5.82;58.82
16030;BME280;34770;49.272;11.070;2023-01-16T11:36:58;95230.69;;;5.48;59.65
16030;BME280;34770;49.272;11.070;2023-01-16T11:39:29;95234.88;;;5.27;60.83
16030;BME280;34770;49.272;11.070;2023-01-16T11:41:57;95237.53;;;5.13;62.62
16030;BME280;34770;49.272;11.070;2023-01-16T11:44:27;95195.47;;;4.75;62.95
16030;BME280;34770;49.272;11.070;2023-01-16T11:47:15;95212.13;;;4.89;63.85
16030;BME280;34770;49.272;11.070;2023-01-16T11:49:50;95195.84;;;4.70;63.65
16030;BME280;34770;49.272;11.070;2023-01-16T11:52:17;95191.06;;;4.67;64.90
16030;BME280;34770;49.272;11.070;2023-01-16T11:54:53;95156.38;;;4.55;64.99
16030;BME280;34770;49.272;11.070;2023-01-16T12:14:19;95114.97;;;5.00;63.49
16030;BME280;34770;49.272;11.070;2023-01-16T12:31:17;95135.72;;;5.46;60.32
16030;BME280;34770;49.272;11.070;2023-01-16T12:44:59;95131.13;;;5.05;60.06
16030;BME280;34770;49.272;11.070;2023-01-16T12:47:46;95119.75;;;5.10;60.59
16030;BME280;34770;49.272;11.070;2023-01-16T12:58:38;95133.84;;;4.98;60.21
16030;BME280;34770;49.272;11.070;2023-01-16T13:01:18;95101.06;;;4.82;60.22
16030;BME280;34770;49.272;11.070;2023-01-16T13:04:02;95124.34;;;4.91;60.54
16030;BME280;34770;49.272;11.070;2023-01-16T13:06:43;95127.47;;;4.86;59.35
16030;BME280;34770;49.272;11.070;2023-01-16T13:09:17;95143.19;;;4.82;59.37
16030;BME280;34770;49.272;11.070;2023-01-16T13:11:59;95123.44;;;4.73;59.83
16030;BME280;34770;49.272;11.070;2023-01-16T13:14:47;95104.59;;;4.82;60.17
16030;BME280;34770;49.272;11.070;2023-01-16T13:17:25;95118.69;;;4.70;59.31
16030;BME280;34770;49.272;11.070;2023-01-16T13:19:52;95129.78;;;4.81;60.13
16030;BME280;34770;49.272;11.070;2023-01-16T13:22:26;95102.19;;;4.73;61.41
16030;BME280;34770;49.272;11.070;2023-01-16T13:24:57;95093.94;;;4.77;61.93
16030;BME280;34770;49.272;11.070;2023-01-16T13:27:36;95112.84;;;4.78;60.98
16030;BME280;34770;49.272;11.070;2023-01-16T13:30:08;95108.47;;;4.74;61.28
16030;BME280;34770;49.272;11.070;2023-01-16T13:32:38;95096.19;;;4.60;60.58
16030;BME280;34770;49.272;11.070;2023-01-16T13:35:12;95108.03;;;4.65;61.19
16030;BME280;34770;49.272;11.070;2023-01-16T13:44:21;95091.44;;;4.54;62.04
16030;BME280;34770;49.272;11.070;2023-01-16T13:46:46;95113.50;;;4.57;63.42
16030;BME280;34770;49.272;11.070;2023-01-16T13:49:25;95106.41;;;4.60;62.40
16030;BME280;34770;49.272;11.070;2023-01-16T13:51:52;95097.31;;;4.56;63.02
16030;BME280;34770;49.272;11.070;2023-01-16T13:54:22;95097.72;;;4.54;63.28
16030;BME280;34770;49.272;11.070;2023-01-16T13:57:18;95089.34;;;4.40;63.64
16030;BME280;34770;49.272;11.070;2023-01-16T14:07:48;95053.19;;;4.45;64.71
16030;BME280;34770;49.272;11.070;2023-01-16T14:10:42;95037.41;;;4.38;66.56
16030;BME280;34770;49.272;11.070;2023-01-16T14:13:23;95035.78;;;4.34;67.07
16030;BME280;34770;49.272;11.070;2023-01-16T14:15:58;95032.28;;;4.37;67.01
16030;BME280;34770;49.272;11.070;2023-01-16T14:21:38;95021.72;;;4.46;65.99
16030;BME280;34770;49.272;11.070;2023-01-16T14:24:15;95011.41;;;4.32;67.15
16030;BME280;34770;49.272;11.070;2023-01-16T14:26:51;95013.75;;;4.34;66.94
16030;BME280;34770;49.272;11.070;2023-01-16T14:29:46;95001.16;;;4.32;68.44
16030;BME280;34770;49.272;11.070;2023-01-16T14:32:15;94995.59;;;4.25;70.85
16030;BME280;34770;49.272;11.070;2023-01-16T14:37:21;94993.22;;;4.20;74.46
16030;BME280;34770;49.272;11.070;2023-01-16T14:42:19;94999.81;;;4.08;74.26
16030;BME280;34770;49.272;11.070;2023-01-16T14:48:15;94996.63;;;4.03;75.19
16030;BME280;34770;49.272;11.070;2023-01-16T14:51:18;94994.56;;;3.92;75.76
16030;BME280;34770;49.272;11.070;2023-01-16T14:54:11;94987.50;;;3.95;77.05
16030;BME280;34770;49.272;11.070;2023-01-16T14:57:00;94982.06;;;4.02;74.89
16030;BME280;34770;49.272;11.070;2023-01-16T14:59:36;94970.66;;;3.96;74.88
16030;BME280;34770;49.272;11.070;2023-01-16T15:02:23;94981.97;;;3.91;77.01
16030;BME280;34770;49.272;11.070;2023-01-16T15:05:08;94988.28;;;3.92;79.94
16030;BME280;34770;49.272;11.070;2023-01-16T15:07:56;94999.28;;;3.92;82.00
16030;BME280;34770;49.272;11.070;2023-01-16T15:10:30;94970.91;;;3.84;80.63